createdAt,value
2023-05-09T00:02:57.806Z,7.80
2023-05-09T00:07:44.424Z,7.90
2023-05-09T00:12:34.087Z,7.70
2023-05-09T00:17:22.700Z,7.70
2023-05-09T00:22:09.237Z,7.60
2023-05-09T00:26:56.834Z,7.40
2023-05-09T00:31:47.270Z,7.50
2023-05-09T00:36:33.457Z,7.40
2023-05-09T00:41:33.251Z,7.70
2023-05-09T00:46:23.171Z,7.60
2023-05-09T00:51:12.938Z,7.70
2023-05-09T00:56:01.885Z,7.60
2023-05-09T01:00:52.025Z,7.50
2023-05-09T01:05:51.864Z,7.50
2023-05-09T01:11:14.389Z,7.60
2023-05-09T01:16:20.654Z,7.60
2023-05-09T01:21:10.257Z,7.60
2023-05-09T01:26:10.856Z,7.50
2023-05-09T01:30:58.874Z,7.40
2023-05-09T01:36:00.189Z,7.30
2023-05-09T01:40:54.252Z,7.20
2023-05-09T01:45:39.147Z,7.10
2023-05-09T01:50:25.220Z,7.10
2023-05-09T01:55:16.900Z,7.00
2023-05-09T02:00:03.382Z,6.80
2023-05-09T02:05:19.804Z,6.80
2023-05-09T02:10:25.511Z,6.90
2023-05-09T02:15:11.992Z,7.00
2023-05-09T02:19:59.981Z,6.80
2023-05-09T02:25:19.929Z,6.80
2023-05-09T02:30:10.195Z,6.80
2023-05-09T02:35:02.237Z,6.60
2023-05-09T02:39:48.164Z,6.50
2023-05-09T02:44:51.375Z,6.30
2023-05-09T02:49:36.300Z,6.10
2023-05-09T02:54:24.238Z,6.00
2023-05-09T02:59:16.597Z,6.10
2023-05-09T03:04:01.764Z,6.20
2023-05-09T03:08:51.648Z,6.00
2023-05-09T03:13:37.521Z,6.00
2023-05-09T03:18:23.348Z,6.00
2023-05-09T03:23:16.958Z,6.20
2023-05-09T03:28:00.363Z,6.10
2023-05-09T03:32:49.215Z,6.20
2023-05-09T03:37:36.945Z,6.10
2023-05-09T03:42:29.701Z,6.10
2023-05-09T03:47:28.313Z,6.20
2023-05-09T03:52:18.081Z,6.30
2023-05-09T03:57:04.713Z,6.90
2023-05-09T04:02:10.254Z,7.60
2023-05-09T04:06:56.675Z,7.50
2023-05-09T04:11:45.167Z,7.10
2023-05-09T04:16:33.239Z,6.90
2023-05-09T04:21:22.197Z,6.80
2023-05-09T04:26:12.295Z,7.00
2023-05-09T04:30:56.439Z,7.10
2023-05-09T04:35:51.146Z,7.30
2023-05-09T04:40:48.788Z,7.40
2023-05-09T04:45:38.917Z,7.80
2023-05-09T04:50:25.191Z,7.90
2023-05-09T04:55:13.258Z,8.20
2023-05-09T05:00:02.913Z,8.40
2023-05-09T05:04:49.952Z,8.60
2023-05-09T05:09:38.653Z,8.90
2023-05-09T05:14:25.233Z,9.00
2023-05-09T05:19:12.941Z,9.40
2023-05-09T05:24:36.065Z,9.50
2023-05-09T05:29:25.700Z,9.70
2023-05-09T05:34:24.205Z,10.00
2023-05-09T05:39:12.202Z,10.20
2023-05-09T05:44:04.985Z,10.30
2023-05-09T05:49:05.791Z,10.70
2023-05-09T05:54:11.286Z,10.90
2023-05-09T05:58:58.270Z,11.20
2023-05-09T06:04:03.909Z,11.40
2023-05-09T06:08:50.487Z,11.60
2023-05-09T06:13:37.832Z,11.80
2023-05-09T06:18:24.219Z,12.20
2023-05-09T06:23:27.499Z,12.40
2023-05-09T06:28:16.357Z,12.50
2023-05-09T06:33:07.575Z,12.80
2023-05-09T06:37:57.222Z,13.20
2023-05-09T06:42:42.212Z,13.30
2023-05-09T06:47:28.900Z,13.20
2023-05-09T06:52:17.060Z,13.60
2023-05-09T06:57:52.853Z,13.90
2023-05-09T07:02:42.222Z,14.00
2023-05-09T07:07:58.888Z,14.40
2023-05-09T07:13:03.240Z,14.60
2023-05-09T07:18:08.718Z,14.60
2023-05-09T07:28:01.079Z,14.80
2023-05-09T07:32:51.348Z,15.20
2023-05-09T07:37:40.920Z,15.70
2023-05-09T07:42:27.993Z,15.20
2023-05-09T07:47:12.882Z,15.30
2023-05-09T07:57:05.269Z,16.00
2023-05-09T08:02:08.329Z,16.30
2023-05-09T08:06:57.753Z,16.50
2023-05-09T08:11:44.900Z,16.80
2023-05-09T08:16:45.097Z,16.60
2023-05-09T08:21:59.008Z,17.00
2023-05-09T08:26:56.344Z,17.20
2023-05-09T08:32:02.983Z,16.80
2023-05-09T08:36:48.681Z,17.30
2023-05-09T08:41:38.628Z,17.00
2023-05-09T08:47:15.837Z,17.60
2023-05-09T08:52:04.810Z,18.10
2023-05-09T08:56:52.901Z,18.60
2023-05-09T09:01:38.495Z,18.70
2023-05-09T09:06:25.981Z,18.60
2023-05-09T09:11:29.141Z,18.80
2023-05-09T09:16:34.898Z,18.80
2023-05-09T09:21:21.419Z,18.90
2023-05-09T09:26:42.393Z,19.50
2023-05-09T09:32:01.117Z,19.20
2023-05-09T09:36:52.148Z,19.30
2023-05-09T09:41:56.275Z,19.60
2023-05-09T09:47:00.509Z,19.50
2023-05-09T09:51:50.850Z,19.60
2023-05-09T09:56:49.920Z,19.10
2023-05-09T10:01:59.572Z,19.30
2023-05-09T10:06:58.922Z,19.30
2023-05-09T10:11:46.205Z,19.60
2023-05-09T10:16:43.611Z,20.10
2023-05-09T10:21:53.189Z,20.30
2023-05-09T10:26:46.500Z,20.20
2023-05-09T10:31:32.746Z,20.70
2023-05-09T10:36:20.628Z,20.80
2023-05-09T10:41:06.703Z,20.50
2023-05-09T10:45:53.260Z,20.50
2023-05-09T10:50:51.379Z,20.90
2023-05-09T10:55:51.001Z,20.90
2023-05-09T11:05:53.116Z,20.90
2023-05-09T11:10:47.446Z,20.70
2023-05-09T11:15:32.233Z,20.80
2023-05-09T11:20:20.312Z,20.90
2023-05-09T11:25:06.747Z,21.20
2023-05-09T11:29:56.747Z,21.60
2023-05-09T11:35:19.467Z,21.00
2023-05-09T11:40:47.782Z,21.70
2023-05-09T11:45:43.013Z,22.00
2023-05-09T11:50:31.382Z,22.20
2023-05-09T11:55:29.849Z,22.20
2023-05-09T12:00:23.537Z,22.50
2023-05-09T12:05:26.847Z,22.00
2023-05-09T12:10:43.707Z,21.90
2023-05-09T12:15:49.075Z,21.90
2023-05-09T12:20:52.683Z,22.10
2023-05-09T12:25:36.877Z,22.30
2023-05-09T12:30:57.294Z,21.80
2023-05-09T12:35:58.575Z,22.10
2023-05-09T12:40:50.080Z,21.60
2023-05-09T12:45:39.843Z,21.80
2023-05-09T12:50:42.224Z,22.10
2023-05-09T12:55:59.915Z,21.90
2023-05-09T13:00:52.709Z,22.40
2023-05-09T13:05:36.852Z,22.40
2023-05-09T13:10:29.902Z,22.40
2023-05-09T13:15:17.323Z,22.40
2023-05-09T13:25:09.514Z,22.10
2023-05-09T13:29:54.128Z,21.70
2023-05-09T13:34:41.541Z,21.90
2023-05-09T13:39:32.514Z,22.20
2023-05-09T13:44:19.152Z,22.30
2023-05-09T13:49:19.742Z,22.20
2023-05-09T13:54:14.864Z,22.40
2023-05-09T13:59:03.269Z,22.10
2023-05-09T14:03:49.391Z,22.00
2023-05-09T14:08:33.146Z,21.80
2023-05-09T14:13:23.265Z,21.70
2023-05-09T14:18:17.670Z,21.60
2023-05-09T14:23:20.552Z,21.90
2023-05-09T14:28:38.299Z,21.50
2023-05-09T14:33:24.362Z,21.30
2023-05-09T14:38:10.191Z,21.30
2023-05-09T14:42:59.652Z,21.10
2023-05-09T14:47:45.545Z,21.50
2023-05-09T14:52:54.905Z,21.60
2023-05-09T14:57:39.448Z,21.60
2023-05-09T15:02:25.872Z,21.20
2023-05-09T15:07:30.393Z,21.10
2023-05-09T15:12:33.526Z,20.90
2023-05-09T15:17:22.606Z,21.20
2023-05-09T15:22:11.337Z,21.00
2023-05-09T15:27:02.817Z,21.20
2023-05-09T15:32:20.736Z,20.90
2023-05-09T15:37:08.140Z,20.60
2023-05-09T15:41:55.671Z,20.10
2023-05-09T15:47:29.204Z,20.40
2023-05-09T15:52:38.141Z,20.50
2023-05-09T15:57:22.882Z,20.60
2023-05-09T16:02:12.432Z,20.50
2023-05-09T16:07:15.821Z,20.20
2023-05-09T16:12:04.804Z,20.20
2023-05-09T16:16:51.755Z,19.40
2023-05-09T16:21:39.739Z,19.80
2023-05-09T16:26:29.136Z,20.00
2023-05-09T16:31:13.141Z,19.80
2023-05-09T16:36:02.260Z,20.00
2023-05-09T16:40:53.891Z,19.80
2023-05-09T16:45:40.800Z,19.70
2023-05-09T16:50:25.499Z,19.40
2023-05-09T16:55:19.858Z,19.40
2023-05-09T17:00:18.500Z,19.30
2023-05-09T17:05:09.073Z,19.40
2023-05-09T17:09:56.051Z,19.50
2023-05-09T17:14:43.050Z,19.20
2023-05-09T17:19:29.800Z,18.50
2023-05-09T17:24:35.830Z,18.10
2023-05-09T17:29:22.673Z,17.60
2023-05-09T17:34:15.954Z,17.30
2023-05-09T17:39:15.407Z,17.10
2023-05-09T17:44:20.644Z,16.70
2023-05-09T17:49:27.420Z,16.60
2023-05-09T17:54:12.110Z,16.40
2023-05-09T17:58:59.805Z,16.20
2023-05-09T18:03:48.176Z,16.00
2023-05-09T18:08:32.909Z,15.70
2023-05-09T18:13:22.966Z,15.40
2023-05-09T18:18:09.901Z,15.30
2023-05-09T18:22:58.462Z,15.10
2023-05-09T18:27:47.205Z,15.10
2023-05-09T18:32:32.683Z,14.80
2023-05-09T18:37:22.686Z,14.60
2023-05-09T18:42:10.479Z,14.50
2023-05-09T18:46:57.983Z,14.30
2023-05-09T18:51:50.627Z,14.10
2023-05-09T18:56:39.263Z,13.90
2023-05-09T19:01:24.943Z,13.80
2023-05-09T19:06:10.660Z,13.70
2023-05-09T19:10:56.387Z,13.60
2023-05-09T19:16:07.305Z,13.40
2023-05-09T19:21:04.007Z,13.40
2023-05-09T19:25:56.971Z,13.30
2023-05-09T19:30:40.693Z,13.30
2023-05-09T19:35:27.699Z,13.30
2023-05-09T19:40:20.826Z,13.20
2023-05-09T19:45:11.547Z,13.20
2023-05-09T19:49:55.122Z,13.10
2023-05-09T19:54:40.466Z,13.10
2023-05-09T20:00:02.618Z,13.00
2023-05-09T20:04:54.221Z,12.90
2023-05-09T20:09:37.944Z,12.80
2023-05-09T20:14:26.082Z,12.70
2023-05-09T20:20:00.296Z,12.70
2023-05-09T20:24:52.481Z,12.60
2023-05-09T20:29:37.787Z,12.50
2023-05-09T20:34:27.304Z,12.60
2023-05-09T20:39:13.226Z,12.60
2023-05-09T20:44:49.664Z,12.60
2023-05-09T20:49:38.710Z,12.50
2023-05-09T20:54:31.031Z,12.50
2023-05-09T20:59:14.648Z,12.60
2023-05-09T21:04:00.293Z,12.60
2023-05-09T21:08:53.194Z,12.50
2023-05-09T21:13:37.287Z,12.40
2023-05-09T21:18:27.457Z,12.40
2023-05-09T21:23:12.943Z,12.40
2023-05-09T21:28:01.346Z,12.30
2023-05-09T21:32:51.645Z,12.30
2023-05-09T21:37:37.940Z,12.30
2023-05-09T21:42:26.426Z,12.20
2023-05-09T21:47:13.712Z,12.10
2023-05-09T21:52:03.473Z,12.20
2023-05-09T21:56:49.122Z,12.20
2023-05-09T22:01:42.540Z,12.20
2023-05-09T22:06:39.811Z,12.10
2023-05-09T22:11:29.161Z,12.10
2023-05-09T22:16:33.871Z,12.00
2023-05-09T22:21:23.738Z,12.10
2023-05-09T22:26:08.954Z,12.10
2023-05-09T22:30:58.438Z,12.20
2023-05-09T22:35:44.759Z,12.00
2023-05-09T22:40:34.691Z,12.00
2023-05-09T22:45:21.164Z,11.90
2023-05-09T22:50:27.592Z,11.80
2023-05-09T22:55:17.472Z,11.80
2023-05-09T23:00:01.173Z,11.90
2023-05-09T23:04:50.838Z,11.90
2023-05-09T23:09:37.939Z,11.80
2023-05-09T23:14:23.064Z,11.70
2023-05-09T23:19:15.226Z,11.70
2023-05-09T23:24:29.395Z,11.70
2023-05-09T23:29:20.218Z,11.70
2023-05-09T23:34:08.773Z,11.60
2023-05-09T23:38:57.433Z,11.40
2023-05-09T23:44:03.331Z,11.40
2023-05-09T23:49:04.946Z,11.40
2023-05-09T23:53:53.564Z,11.30
2023-05-09T23:58:43.121Z,11.20
